Time,TemperatureF,DewpointF,PressureIn,WindDirection,WindDirectionDegrees,WindSpeedMPH,WindSpeedGustMPH,Humidity,HourlyPrecipIn,Conditions,Clouds,dailyrainin,SoftwareType,DateUTC
2013-05-18 00:01:00,75.6,70.1,29.79,SE,144,6.0,11.0,83,0.00,,SKC,0.00,VWS V14.01,2013-05-18 05:01:00,
2013-05-18 00:06:00,75.3,69.8,29.79,South,169,6.0,9.0,83,0.00,,SKC,0.00,VWS V14.01,2013-05-18 05:06:00,
2013-05-18 00:11:00,75.1,69.6,29.79,ESE,123,5.0,11.0,83,0.00,,SKC,0.00,VWS V14.01,2013-05-18 05:11:00,
2013-05-18 00:16:00,74.9,69.7,29.79,SE,144,8.0,10.0,84,0.00,,SKC,0.00,VWS V14.01,2013-05-18 05:16:00,
2013-05-18 00:21:00,74.8,69.7,29.79,SSE,159,2.0,6.0,84,0.00,,SKC,0.00,VWS V14.01,2013-05-18 05:21:00,
2013-05-18 00:26:00,74.6,69.4,29.80,SSE,150,9.0,11.0,84,0.00,,SKC,0.00,VWS V14.01,2013-05-18 05:26:00,
2013-05-18 00:31:00,74.5,69.7,29.80,South,177,3.0,5.0,85,0.00,,SKC,0.00,VWS V14.01,2013-05-18 05:31:00,
2013-05-18 00:36:00,74.3,69.5,29.79,SSE,167,4.0,5.0,85,0.00,,SKC,0.00,VWS V14.01,2013-05-18 05:36:00,
2013-05-18 00:41:00,74.1,69.3,29.79,South,171,7.0,8.0,85,0.00,,SKC,0.00,VWS V14.01,2013-05-18 05:41:00,
2013-05-18 00:46:00,73.9,69.1,29.79,SE,130,12.0,12.0,85,0.00,,SKC,0.00,VWS V14.01,2013-05-18 05:46:00,
2013-05-18 00:51:00,73.8,69.0,29.79,SSW,198,7.0,7.0,85,0.00,,SKC,0.00,VWS V14.01,2013-05-18 05:51:00,
2013-05-18 00:56:00,73.6,68.8,29.79,South,179,8.0,13.0,85,0.00,,SKC,0.00,VWS V14.01,2013-05-18 05:56:00,
2013-05-18 01:01:00,73.4,68.6,29.79,South,172,6.0,14.0,85,0.00,,SKC,0.00,VWS V14.01,2013-05-18 06:01:00,
2013-05-18 01:06:00,73.3,68.5,29.80,SSE,149,7.0,13.0,85,0.00,,SKC,0.00,VWS V14.01,2013-05-18 06:06:00,
2013-05-18 01:11:00,73.1,68.3,29.80,SSE,152,6.0,7.0,85,0.00,,SKC,0.00,VWS V14.01,2013-05-18 06:11:00,
2013-05-18 01:16:00,73.0,68.2,29.80,South,182,10.0,10.0,85,0.00,,SKC,0.00,VWS V14.01,2013-05-18 06:16:00,
2013-05-18 01:21:00,72.8,68.0,29.79,South,180,9.0,9.0,85,0.00,,SKC,0.00,VWS V14.01,2013-05-18 06:21:00,
2013-05-18 01:26:00,72.5,67.7,29.79,SSE,161,6.0,12.0,85,0.00,,SKC,0.00,VWS V14.01,2013-05-18 06:26:00,
2013-05-18 01:31:00,72.4,68.0,29.79,SSE,165,4.0,7.0,86,0.00,,SKC,0.00,VWS V14.01,2013-05-18 06:31:00,
2013-05-18 01:36:00,72.2,67.8,29.79,South,182,5.0,8.0,86,0.00,,SKC,0.00,VWS V14.01,2013-05-18 06:36:00,
2013-05-18 01:41:00,72.1,67.7,29.79,SSE,149,3.0,6.0,86,0.00,,SKC,0.00,VWS V14.01,2013-05-18 06:41:00,
2013-05-18 01:46:00,71.9,67.5,29.79,SSE,159,9.0,9.0,86,0.00,,SKC,0.00,VWS V14.01,2013-05-18 06:46:00,
2013-05-18 01:51:00,71.7,67.3,29.79,SSE,164,3.0,5.0,86,0.00,,SKC,0.00,VWS V14.01,2013-05-18 06:51:00,
2013-05-18 01:56:00,71.5,67.1,29.78,SSE,165,5.0,6.0,86,0.00,,SKC,0.00,VWS V14.01,2013-05-18 06:56:00,
2013-05-18 02:01:00,71.3,66.6,29.78,SSE,160,4.0,10.0,85,0.00,,SKC,0.00,VWS V14.01,2013-05-18 07:01:00,
2013-05-18 02:06:00,71.3,66.6,29.78,SSE,166,3.0,5.0,85,0.00,,SKC,0.00,VWS V14.01,2013-05-18 07:06:00,
2013-05-18 02:11:00,71.2,66.5,29.78,SSE,153,6.0,7.0,85,0.00,,SKC,0.00,VWS V14.01,2013-05-18 07:11:00,
2013-05-18 02:16:00,71.1,66.4,29.78,SSE,158,2.0,5.0,85,0.00,,SKC,0.00,VWS V14.01,2013-05-18 07:16:00,
2013-05-18 02:21:00,70.9,66.2,29.78,South,182,4.0,6.0,85,0.00,,SKC,0.00,VWS V14.01,2013-05-18 07:21:00,
2013-05-18 02:26:00,70.7,66.0,29.78,SSE,159,3.0,4.0,85,0.00,,SKC,0.00,VWS V14.01,2013-05-18 07:26:00,
2013-05-18 02:31:00,70.6,65.9,29.78,SSE,167,2.0,5.0,85,0.00,,SKC,0.00,VWS V14.01,2013-05-18 07:31:00,
2013-05-18 02:36:00,70.5,65.8,29.78,SSE,153,3.0,6.0,85,0.00,,SKC,0.00,VWS V14.01,2013-05-18 07:36:00,
2013-05-18 02:41:00,70.4,65.7,29.78,South,183,2.0,7.0,85,0.00,,SKC,0.00,VWS V14.01,2013-05-18 07:41:00,
2013-05-18 02:46:00,70.4,65.7,29.78,South,172,5.0,11.0,85,0.00,,SKC,0.00,VWS V14.01,2013-05-18 07:46:00,
2013-05-18 02:51:00,70.4,65.7,29.78,South,175,6.0,8.0,85,0.00,,SKC,0.00,VWS V14.01,2013-05-18 07:51:00,
2013-05-18 02:56:00,70.3,65.6,29.78,SSE,166,4.0,6.0,85,0.00,,SKC,0.00,VWS V14.01,2013-05-18 07:56:00,
2013-05-18 03:01:00,70.1,65.4,29.78,SSE,161,5.0,9.0,85,0.00,,SKC,0.00,VWS V14.01,2013-05-18 08:01:00,
2013-05-18 03:06:00,70.0,65.3,29.78,South,188,10.0,10.0,85,0.00,,SKC,0.00,VWS V14.01,2013-05-18 08:06:00,
2013-05-18 03:11:00,70.0,65.3,29.78,SSE,160,5.0,11.0,85,0.00,,SKC,0.00,VWS V14.01,2013-05-18 08:11:00,
2013-05-18 03:16:00,69.9,65.2,29.78,SSE,167,6.0,7.0,85,0.00,,SKC,0.00,VWS V14.01,2013-05-18 08:16:00,
2013-05-18 03:21:00,69.8,65.1,29.78,South,169,3.0,7.0,85,0.00,,SKC,0.00,VWS V14.01,2013-05-18 08:21:00,
2013-05-18 03:26:00,69.6,64.9,29.78,South,172,5.0,6.0,85,0.00,,SKC,0.00,VWS V14.01,2013-05-18 08:26:00,
2013-05-18 03:31:00,69.5,64.8,29.78,South,171,4.0,7.0,85,0.00,,SKC,0.00,VWS V14.01,2013-05-18 08:31:00,
2013-05-18 03:36:00,69.3,64.9,29.78,South,188,7.0,7.0,86,0.00,,SKC,0.00,VWS V14.01,2013-05-18 08:36:00,
2013-05-18 03:41:00,69.1,64.7,29.78,South,180,3.0,5.0,86,0.00,,SKC,0.00,VWS V14.01,2013-05-18 08:41:00,
2013-05-18 03:46:00,69.0,64.6,29.78,South,171,4.0,5.0,86,0.00,,SKC,0.00,VWS V14.01,2013-05-18 08:46:00,
2013-05-18 03:51:00,68.8,64.4,29.78,South,179,4.0,6.0,86,0.00,,SKC,0.00,VWS V14.01,2013-05-18 08:51:00,
2013-05-18 03:56:00,68.7,64.3,29.78,South,173,4.0,6.0,86,0.00,,SKC,0.00,VWS V14.01,2013-05-18 08:56:00,
2013-05-18 04:01:00,68.6,64.2,29.78,South,176,4.0,5.0,86,0.00,,SKC,0.00,VWS V14.01,2013-05-18 09:01:00,
2013-05-18 04:06:00,68.5,64.2,29.78,South,179,6.0,6.0,86,0.00,,SKC,0.00,VWS V14.01,2013-05-18 09:06:00,
2013-05-18 04:11:00,68.4,64.4,29.78,South,184,3.0,10.0,87,0.00,,SKC,0.00,VWS V14.01,2013-05-18 09:11:00,
2013-05-18 04:16:00,68.4,64.4,29.78,South,188,5.0,9.0,87,0.00,,SKC,0.00,VWS V14.01,2013-05-18 09:16:00,
2013-05-18 04:21:00,68.3,64.3,29.78,South,180,6.0,8.0,87,0.00,,SKC,0.00,VWS V14.01,2013-05-18 09:21:00,
2013-05-18 04:26:00,68.3,64.3,29.78,South,180,5.0,5.0,87,0.00,,SKC,0.00,VWS V14.01,2013-05-18 09:26:00,
2013-05-18 04:31:00,68.3,64.3,29.78,South,182,2.0,7.0,87,0.00,,SKC,0.00,VWS V14.01,2013-05-18 09:31:00,
2013-05-18 04:36:00,68.3,64.3,29.78,SSE,156,3.0,9.0,87,0.00,,SKC,0.00,VWS V14.01,2013-05-18 09:36:00,
2013-05-18 04:41:00,68.2,64.2,29.78,SSW,206,7.0,10.0,87,0.00,,SKC,0.00,VWS V14.01,2013-05-18 09:41:00,
2013-05-18 04:46:00,68.3,64.3,29.78,South,178,8.0,11.0,87,0.00,,SKC,0.00,VWS V14.01,2013-05-18 09:46:00,
2013-05-18 04:51:00,68.5,64.5,29.78,South,181,7.0,9.0,87,0.00,,SKC,0.00,VWS V14.01,2013-05-18 09:51:00,
2013-05-18 04:56:00,68.5,64.5,29.78,South,184,9.0,10.0,87,0.00,,SKC,0.00,VWS V14.01,2013-05-18 09:56:00,
2013-05-18 05:01:00,68.5,64.5,29.78,South,179,4.0,8.0,87,0.00,,SKC,0.00,VWS V14.01,2013-05-18 10:01:00,
2013-05-18 05:06:00,68.4,64.4,29.78,SSE,156,6.0,13.0,87,0.00,,SKC,0.00,VWS V14.01,2013-05-18 10:06:00,
2013-05-18 05:11:00,68.5,64.5,29.78,South,177,5.0,7.0,87,0.00,,SKC,0.00,VWS V14.01,2013-05-18 10:11:00,
2013-05-18 05:16:00,68.4,64.4,29.78,South,178,7.0,9.0,87,0.00,,SKC,0.00,VWS V14.01,2013-05-18 10:16:00,
2013-05-18 05:21:00,68.4,64.4,29.78,South,187,9.0,12.0,87,0.00,,SKC,0.00,VWS V14.01,2013-05-18 10:21:00,
2013-05-18 05:26:00,68.4,64.4,29.78,South,184,6.0,11.0,87,0.00,,SKC,0.00,VWS V14.01,2013-05-18 10:26:00,
2013-05-18 05:31:00,68.5,64.5,29.78,SSE,153,6.0,7.0,87,0.00,,SKC,0.00,VWS V14.01,2013-05-18 10:31:00,
2013-05-18 05:36:00,68.5,64.5,29.78,South,187,8.0,8.0,87,0.00,,SKC,0.00,VWS V14.01,2013-05-18 10:36:00,
2013-05-18 05:41:00,68.6,64.6,29.78,South,180,5.0,7.0,87,0.00,,SKC,0.00,VWS V14.01,2013-05-18 10:41:00,
2013-05-18 05:46:00,68.6,64.6,29.78,SSW,193,3.0,10.0,87,0.00,,SKC,0.00,VWS V14.01,2013-05-18 10:46:00,
2013-05-18 05:51:00,68.6,64.6,29.78,South,171,4.0,4.0,87,0.00,,SKC,0.00,VWS V14.01,2013-05-18 10:51:00,
2013-05-18 05:56:00,68.5,64.5,29.78,South,187,6.0,6.0,87,0.00,,SKC,0.00,VWS V14.01,2013-05-18 10:56:00,
2013-05-18 06:01:00,68.5,64.5,29.78,South,178,5.0,7.0,87,0.00,,SKC,0.00,VWS V14.01,2013-05-18 11:01:00,
2013-05-18 06:06:00,68.4,64.4,29.78,South,174,3.0,7.0,87,0.00,,SKC,0.00,VWS V14.01,2013-05-18 11:06:00,
2013-05-18 06:11:00,68.4,64.4,29.79,SSE,161,5.0,6.0,87,0.00,,SKC,0.00,VWS V14.01,2013-05-18 11:11:00,
2013-05-18 06:16:00,68.3,64.3,29.79,SSE,159,4.0,6.0,87,0.00,,SKC,0.00,VWS V14.01,2013-05-18 11:16:00,
2013-05-18 06:21:00,68.2,64.2,29.79,South,178,6.0,11.0,87,0.00,,SKC,0.00,VWS V14.01,2013-05-18 11:21:00,
2013-05-18 06:26:00,68.2,64.5,29.79,South,188,5.0,10.0,88,0.00,,SKC,0.00,VWS V14.01,2013-05-18 11:26:00,
2013-05-18 06:31:00,68.2,64.5,29.79,South,184,9.0,9.0,88,0.00,,SKC,0.00,VWS V14.01,2013-05-18 11:31:00,
2013-05-18 06:36:00,68.1,64.4,29.79,SSW,195,5.0,7.0,88,0.00,,SKC,0.00,VWS V14.01,2013-05-18 11:36:00,
2013-05-18 06:41:00,68.2,64.5,29.79,South,182,4.0,6.0,88,0.00,,SKC,0.00,VWS V14.01,2013-05-18 11:41:00,
2013-05-18 06:46:00,68.1,64.4,29.80,SSE,163,4.0,7.0,88,0.00,,SKC,0.00,VWS V14.01,2013-05-18 11:46:00,
2013-05-18 06:51:00,68.1,64.4,29.80,South,176,7.0,7.0,88,0.00,,SKC,0.00,VWS V14.01,2013-05-18 11:51:00,
2013-05-18 06:56:00,68.0,64.3,29.80,South,180,3.0,7.0,88,0.00,,SKC,0.00,VWS V14.01,2013-05-18 11:56:00,
2013-05-18 07:01:00,68.0,64.3,29.80,South,171,3.0,5.0,88,0.00,,SKC,0.00,VWS V14.01,2013-05-18 12:01:00,
2013-05-18 07:06:00,67.9,64.2,29.80,South,180,4.0,5.0,88,0.00,,SKC,0.00,VWS V14.01,2013-05-18 12:06:00,
2013-05-18 07:11:00,67.9,64.2,29.80,SSE,165,4.0,5.0,88,0.00,,SKC,0.00,VWS V14.01,2013-05-18 12:11:00,
2013-05-18 07:16:00,68.0,64.3,29.80,SSE,164,6.0,9.0,88,0.00,,SKC,0.00,VWS V14.01,2013-05-18 12:16:00,
2013-05-18 07:21:00,68.1,64.4,29.80,SSE,163,4.0,5.0,88,0.00,,SKC,0.00,VWS V14.01,2013-05-18 12:21:00,
2013-05-18 07:26:00,68.2,64.5,29.80,South,187,7.0,7.0,88,0.00,,SKC,0.00,VWS V14.01,2013-05-18 12:26:00,
2013-05-18 07:31:00,68.3,64.6,29.80,SSE,161,3.0,9.0,88,0.00,,SKC,0.00,VWS V14.01,2013-05-18 12:31:00,
2013-05-18 07:36:00,68.4,64.7,29.80,South,181,6.0,7.0,88,0.00,,SKC,0.00,VWS V14.01,2013-05-18 12:36:00,
2013-05-18 07:41:00,68.5,64.8,29.81,SSE,161,4.0,11.0,88,0.00,,SKC,0.00,VWS V14.01,2013-05-18 12:41:00,
2013-05-18 07:46:00,68.7,65.0,29.81,SSE,156,5.0,10.0,88,0.00,,SKC,0.00,VWS V14.01,2013-05-18 12:46:00,
2013-05-18 07:51:00,68.9,65.2,29.80,South,182,7.0,9.0,88,0.00,,SKC,0.00,VWS V14.01,2013-05-18 12:51:00,
2013-05-18 07:56:00,69.0,65.3,29.80,South,182,6.0,10.0,88,0.00,,SKC,0.00,VWS V14.01,2013-05-18 12:56:00,
2013-05-18 08:01:00,69.3,65.3,29.80,SSE,148,12.0,13.0,87,0.00,,SKC,0.00,VWS V14.01,2013-05-18 13:01:00,
2013-05-18 08:06:00,69.4,65.4,29.80,SE,145,7.0,13.0,87,0.00,,SKC,0.00,VWS V14.01,2013-05-18 13:06:00,
2013-05-18 08:11:00,69.5,65.5,29.80,SE,141,3.0,13.0,87,0.00,,SKC,0.00,VWS V14.01,2013-05-18 13:11:00,
2013-05-18 08:16:00,69.7,65.7,29.80,South,187,6.0,7.0,87,0.00,,SKC,0.00,VWS V14.01,2013-05-18 13:16:00,
2013-05-18 08:21:00,69.8,65.8,29.80,South,175,7.0,13.0,87,0.00,,SKC,0.00,VWS V14.01,2013-05-18 13:21:00,
2013-05-18 08:26:00,70.0,66.0,29.81,South,171,6.0,12.0,87,0.00,,SKC,0.00,VWS V14.01,2013-05-18 13:26:00,
2013-05-18 08:31:00,70.2,66.2,29.81,South,186,9.0,11.0,87,0.00,,SKC,0.00,VWS V14.01,2013-05-18 13:31:00,
2013-05-18 08:36:00,70.5,66.4,29.81,SSW,194,11.0,11.0,87,0.00,,SKC,0.00,VWS V14.01,2013-05-18 13:36:00,
2013-05-18 08:41:00,70.7,66.3,29.81,South,175,6.0,14.0,86,0.00,,SKC,0.00,VWS V14.01,2013-05-18 13:41:00,
2013-05-18 08:46:00,70.8,66.4,29.81,South,184,9.0,15.0,86,0.00,,SKC,0.00,VWS V14.01,2013-05-18 13:46:00,
2013-05-18 08:51:00,71.1,66.7,29.81,South,191,16.0,16.0,86,0.00,,SKC,0.00,VWS V14.01,2013-05-18 13:51:00,
2013-05-18 08:56:00,71.3,66.9,29.81,SSE,167,12.0,12.0,86,0.00,,SKC,0.00,VWS V14.01,2013-05-18 13:56:00,
2013-05-18 09:01:00,71.5,66.8,29.81,South,177,10.0,12.0,85,0.00,,SKC,0.00,VWS V14.01,2013-05-18 14:01:00,
2013-05-18 09:06:00,71.9,66.8,29.81,South,183,15.0,15.0,84,0.00,,SKC,0.00,VWS V14.01,2013-05-18 14:06:00,
2013-05-18 09:11:00,72.2,67.1,29.81,SSE,159,5.0,13.0,84,0.00,,SKC,0.00,VWS V14.01,2013-05-18 14:11:00,
2013-05-18 09:16:00,72.6,67.2,29.81,South,173,11.0,20.0,83,0.00,,SKC,0.00,VWS V14.01,2013-05-18 14:16:00,
2013-05-18 09:21:00,72.8,67.3,29.81,SSE,159,11.0,14.0,83,0.00,,SKC,0.00,VWS V14.01,2013-05-18 14:21:00,
2013-05-18 09:26:00,73.1,67.6,29.82,South,174,10.0,13.0,83,0.00,,SKC,0.00,VWS V14.01,2013-05-18 14:26:00,
2013-05-18 09:31:00,73.5,67.3,29.81,South,173,7.0,16.0,81,0.00,,SKC,0.00,VWS V14.01,2013-05-18 14:31:00,
2013-05-18 09:36:00,73.9,67.7,29.82,SSE,157,4.0,16.0,81,0.00,,SKC,0.00,VWS V14.01,2013-05-18 14:36:00,
2013-05-18 09:41:00,74.2,67.6,29.82,South,181,6.0,23.0,80,0.00,,SKC,0.00,VWS V14.01,2013-05-18 14:41:00,
2013-05-18 09:46:00,74.7,68.1,29.82,SSW,192,13.0,17.0,80,0.00,,SKC,0.00,VWS V14.01,2013-05-18 14:46:00,
2013-05-18 09:51:00,75.1,68.5,29.82,South,180,13.0,13.0,80,0.00,,SKC,0.00,VWS V14.01,2013-05-18 14:51:00,
2013-05-18 09:56:00,75.9,68.6,29.82,South,178,6.0,13.0,78,0.00,,SKC,0.00,VWS V14.01,2013-05-18 14:56:00,
2013-05-18 10:01:00,76.3,68.2,29.82,SSE,166,12.0,14.0,76,0.00,,SKC,0.00,VWS V14.01,2013-05-18 15:01:00,
2013-05-18 10:06:00,76.9,68.4,29.82,South,191,14.0,20.0,75,0.00,,SKC,0.00,VWS V14.01,2013-05-18 15:06:00,
2013-05-18 10:11:00,77.2,68.3,29.82,SSW,198,12.0,18.0,74,0.00,,SKC,0.00,VWS V14.01,2013-05-18 15:11:00,
2013-05-18 10:16:00,77.7,68.8,29.82,SSW,206,15.0,15.0,74,0.00,,SKC,0.00,VWS V14.01,2013-05-18 15:16:00,
2013-05-18 10:21:00,77.5,67.8,29.82,SSW,194,13.0,18.0,72,0.00,,SKC,0.00,VWS V14.01,2013-05-18 15:21:00,
2013-05-18 10:26:00,77.4,68.1,29.82,SSE,161,13.0,16.0,73,0.00,,SKC,0.00,VWS V14.01,2013-05-18 15:26:00,
2013-05-18 10:31:00,77.6,67.9,29.81,SE,137,11.0,16.0,72,0.00,,SKC,0.00,VWS V14.01,2013-05-18 15:31:00,
2013-05-18 10:36:00,78.0,67.8,29.81,SSW,192,12.0,12.0,71,0.00,,SKC,0.00,VWS V14.01,2013-05-18 15:36:00,
2013-05-18 10:41:00,78.5,67.1,29.81,South,191,17.0,23.0,68,0.00,,SKC,0.00,VWS V14.01,2013-05-18 15:41:00,
2013-05-18 10:46:00,79.0,67.6,29.81,South,190,17.0,17.0,68,0.00,,SKC,0.00,VWS V14.01,2013-05-18 15:46:00,
2013-05-18 10:51:00,79.3,67.4,29.81,South,179,11.0,22.0,67,0.00,,SKC,0.00,VWS V14.01,2013-05-18 15:51:00,
2013-05-18 10:56:00,79.6,66.8,29.80,South,182,14.0,18.0,65,0.00,,SKC,0.00,VWS V14.01,2013-05-18 15:56:00,
2013-05-18 11:01:00,79.8,66.6,29.80,SSE,157,18.0,25.0,64,0.00,,SKC,0.00,VWS V14.01,2013-05-18 16:01:00,
2013-05-18 11:06:00,79.9,66.7,29.81,SW,214,15.0,19.0,64,0.00,,SKC,0.00,VWS V14.01,2013-05-18 16:06:00,
2013-05-18 11:11:00,80.2,66.5,29.81,South,171,10.0,17.0,63,0.00,,SKC,0.00,VWS V14.01,2013-05-18 16:11:00,
2013-05-18 11:16:00,79.8,66.1,29.81,SSE,165,10.0,22.0,63,0.00,,SKC,0.00,VWS V14.01,2013-05-18 16:16:00,
2013-05-18 11:21:00,79.5,66.3,29.81,SSW,192,15.0,17.0,64,0.00,,SKC,0.00,VWS V14.01,2013-05-18 16:21:00,
2013-05-18 11:26:00,80.0,66.3,29.81,South,182,12.0,20.0,63,0.00,,SKC,0.00,VWS V14.01,2013-05-18 16:26:00,
2013-05-18 11:31:00,80.9,67.1,29.81,South,169,21.0,28.0,63,0.00,,SKC,0.00,VWS V14.01,2013-05-18 16:31:00,
2013-05-18 11:36:00,80.5,66.3,29.81,SSW,199,10.0,19.0,62,0.00,,SKC,0.00,VWS V14.01,2013-05-18 16:36:00,
2013-05-18 11:41:00,80.0,66.7,29.81,South,175,9.0,14.0,64,0.00,,SKC,0.00,VWS V14.01,2013-05-18 16:41:00,
2013-05-18 11:46:00,80.0,66.7,29.80,SSE,152,6.0,15.0,64,0.00,,SKC,0.00,VWS V14.01,2013-05-18 16:46:00,
2013-05-18 11:51:00,81.1,67.8,29.80,SSE,153,5.0,16.0,64,0.00,,SKC,0.00,VWS V14.01,2013-05-18 16:51:00,
2013-05-18 11:56:00,82.4,68.1,29.80,SE,144,11.0,19.0,62,0.00,,SKC,0.00,VWS V14.01,2013-05-18 16:56:00,
2013-05-18 12:01:00,82.5,67.7,29.80,South,169,6.0,18.0,61,0.00,,SKC,0.00,VWS V14.01,2013-05-18 17:01:00,
2013-05-18 12:06:00,82.4,67.6,29.79,SSE,157,11.0,21.0,61,0.00,,SKC,0.00,VWS V14.01,2013-05-18 17:06:00,
2013-05-18 12:11:00,83.1,67.8,29.79,SSE,155,10.0,19.0,60,0.00,,SKC,0.00,VWS V14.01,2013-05-18 17:11:00,
2013-05-18 12:16:00,83.8,68.0,29.79,SSW,197,17.0,17.0,59,0.00,,SKC,0.00,VWS V14.01,2013-05-18 17:16:00,
2013-05-18 12:21:00,83.8,68.0,29.79,South,173,11.0,12.0,59,0.00,,SKC,0.00,VWS V14.01,2013-05-18 17:21:00,
2013-05-18 12:26:00,84.3,66.9,29.79,SSE,161,14.0,22.0,56,0.00,,SKC,0.00,VWS V14.01,2013-05-18 17:26:00,
2013-05-18 12:31:00,84.4,68.5,29.79,South,189,15.0,15.0,59,0.00,,SKC,0.00,VWS V14.01,2013-05-18 17:31:00,
2013-05-18 12:36:00,85.1,68.7,29.79,SSW,192,19.0,19.0,58,0.00,,SKC,0.00,VWS V14.01,2013-05-18 17:36:00,
2013-05-18 12:41:00,84.8,67.9,29.78,SE,128,13.0,18.0,57,0.00,,SKC,0.00,VWS V14.01,2013-05-18 17:41:00,
2013-05-18 12:46:00,84.4,67.0,29.78,South,171,10.0,23.0,56,0.00,,SKC,0.00,VWS V14.01,2013-05-18 17:46:00,
2013-05-18 12:51:00,83.6,66.8,29.78,SSE,156,15.0,19.0,57,0.00,,SKC,0.00,VWS V14.01,2013-05-18 17:51:00,
2013-05-18 12:56:00,82.9,67.1,29.78,SSW,208,12.0,20.0,59,0.00,,SKC,0.00,VWS V14.01,2013-05-18 17:56:00,
2013-05-18 13:01:00,82.6,66.3,29.78,South,172,14.0,21.0,58,0.00,,SKC,0.00,VWS V14.01,2013-05-18 18:01:00,
2013-05-18 13:06:00,83.6,67.8,29.77,SSE,167,15.0,20.0,59,0.00,,SKC,0.00,VWS V14.01,2013-05-18 18:06:00,
2013-05-18 13:11:00,83.7,67.9,29.77,South,189,22.0,23.0,59,0.00,,SKC,0.00,VWS V14.01,2013-05-18 18:11:00,
2013-05-18 13:16:00,84.2,67.8,29.77,SSE,165,17.0,22.0,58,0.00,,SKC,0.00,VWS V14.01,2013-05-18 18:16:00,
2013-05-18 13:21:00,84.4,68.5,29.77,SSE,160,11.0,18.0,59,0.00,,SKC,0.00,VWS V14.01,2013-05-18 18:21:00,
2013-05-18 13:26:00,84.3,68.9,29.77,South,182,11.0,17.0,60,0.00,,SKC,0.00,VWS V14.01,2013-05-18 18:26:00,
2013-05-18 13:31:00,85.0,69.1,29.76,SSE,151,11.0,19.0,59,0.00,,SKC,0.00,VWS V14.01,2013-05-18 18:31:00,
2013-05-18 13:36:00,85.1,68.2,29.76,South,171,18.0,18.0,57,0.00,,SKC,0.00,VWS V14.01,2013-05-18 18:36:00,
2013-05-18 13:41:00,84.8,67.9,29.76,SSE,153,13.0,13.0,57,0.00,,SKC,0.00,VWS V14.01,2013-05-18 18:41:00,
2013-05-18 13:46:00,85.6,68.6,29.76,South,188,21.0,21.0,57,0.00,,SKC,0.00,VWS V14.01,2013-05-18 18:46:00,
2013-05-18 13:51:00,85.4,67.9,29.76,South,190,18.0,20.0,56,0.00,,SKC,0.00,VWS V14.01,2013-05-18 18:51:00,
2013-05-18 13:56:00,85.2,68.3,29.76,SW,217,12.0,20.0,57,0.00,,SKC,0.00,VWS V14.01,2013-05-18 18:56:00,
2013-05-18 14:01:00,85.8,68.8,29.76,SSE,161,18.0,18.0,57,0.00,,SKC,0.00,VWS V14.01,2013-05-18 19:01:00,
2013-05-18 14:06:00,86.1,68.6,29.76,SSE,151,18.0,20.0,56,0.00,,SKC,0.00,VWS V14.01,2013-05-18 19:06:00,
2013-05-18 14:11:00,85.7,68.7,29.76,South,186,13.0,19.0,57,0.00,,SKC,0.00,VWS V14.01,2013-05-18 19:11:00,
2013-05-18 14:16:00,85.9,68.4,29.76,SSE,165,19.0,20.0,56,0.00,,SKC,0.00,VWS V14.01,2013-05-18 19:16:00,
2013-05-18 14:21:00,86.3,69.3,29.76,South,186,11.0,15.0,57,0.00,,SKC,0.00,VWS V14.01,2013-05-18 19:21:00,
2013-05-18 14:26:00,86.4,68.3,29.75,SSE,151,10.0,20.0,55,0.00,,SKC,0.00,VWS V14.01,2013-05-18 19:26:00,
2013-05-18 14:31:00,86.4,68.3,29.75,SSW,200,13.0,21.0,55,0.00,,SKC,0.00,VWS V14.01,2013-05-18 19:31:00,
2013-05-18 14:36:00,86.8,69.2,29.75,SE,146,9.0,12.0,56,0.00,,SKC,0.00,VWS V14.01,2013-05-18 19:36:00,
2013-05-18 14:41:00,87.1,68.4,29.75,South,178,15.0,20.0,54,0.00,,SKC,0.00,VWS V14.01,2013-05-18 19:41:00,
2013-05-18 14:46:00,87.3,68.6,29.75,SSE,148,16.0,21.0,54,0.00,,SKC,0.00,VWS V14.01,2013-05-18 19:46:00,
2013-05-18 14:51:00,87.2,68.0,29.75,SSE,157,11.0,20.0,53,0.00,,SKC,0.00,VWS V14.01,2013-05-18 19:51:00,
2013-05-18 14:56:00,87.7,68.5,29.75,SSE,156,17.0,22.0,53,0.00,,SKC,0.00,VWS V14.01,2013-05-18 19:56:00,
2013-05-18 15:01:00,88.1,68.8,29.75,SSE,166,11.0,13.0,53,0.00,,SKC,0.00,VWS V14.01,2013-05-18 20:01:00,
2013-05-18 15:06:00,88.2,68.4,29.74,SSE,159,9.0,18.0,52,0.00,,SKC,0.00,VWS V14.01,2013-05-18 20:06:00,
2013-05-18 15:11:00,88.0,68.7,29.74,South,171,11.0,19.0,53,0.00,,SKC,0.00,VWS V14.01,2013-05-18 20:11:00,
2013-05-18 15:16:00,87.4,68.2,29.74,South,173,10.0,12.0,53,0.00,,SKC,0.00,VWS V14.01,2013-05-18 20:16:00,
2013-05-18 15:21:00,87.4,68.2,29.74,SSE,165,13.0,14.0,53,0.00,,SKC,0.00,VWS V14.01,2013-05-18 20:21:00,
2013-05-18 15:26:00,87.4,68.2,29.74,South,187,12.0,12.0,53,0.00,,SKC,0.00,VWS V14.01,2013-05-18 20:26:00,
2013-05-18 15:31:00,87.8,68.6,29.74,SSE,160,13.0,16.0,53,0.00,,SKC,0.00,VWS V14.01,2013-05-18 20:31:00,
2013-05-18 15:36:00,87.9,68.7,29.74,South,178,19.0,22.0,53,0.00,,SKC,0.00,VWS V14.01,2013-05-18 20:36:00,
2013-05-18 15:41:00,88.1,68.8,29.74,SW,220,22.0,22.0,53,0.00,,SKC,0.00,VWS V14.01,2013-05-18 20:41:00,
2013-05-18 15:46:00,88.5,69.2,29.74,SE,144,13.0,15.0,53,0.00,,SKC,0.00,VWS V14.01,2013-05-18 20:46:00,
2013-05-18 15:51:00,88.9,69.6,29.73,South,179,10.0,15.0,53,0.00,,SKC,0.00,VWS V14.01,2013-05-18 20:51:00,
2013-05-18 15:56:00,88.8,68.9,29.73,SSE,150,18.0,18.0,52,0.00,,SKC,0.00,VWS V14.01,2013-05-18 20:56:00,
2013-05-18 16:01:00,88.4,68.0,29.73,South,187,20.0,24.0,51,0.00,,SKC,0.00,VWS V14.01,2013-05-18 21:01:00,
2013-05-18 16:06:00,87.9,68.1,29.73,South,185,15.0,18.0,52,0.00,,SKC,0.00,VWS V14.01,2013-05-18 21:06:00,
2013-05-18 16:12:00,88.1,69.4,29.73,SSE,154,10.0,12.0,54,0.00,,SKC,0.00,VWS V14.01,2013-05-18 21:12:00,
2013-05-18 16:17:00,87.8,69.1,29.73,SE,146,5.0,6.0,54,0.00,,SKC,0.00,VWS V14.01,2013-05-18 21:17:00,
2013-05-18 16:21:00,87.5,68.3,29.72,South,190,9.0,10.0,53,0.00,,SKC,0.00,VWS V14.01,2013-05-18 21:21:00,
2013-05-18 16:26:00,87.4,68.7,29.73,South,191,15.0,15.0,54,0.00,,SKC,0.00,VWS V14.01,2013-05-18 21:26:00,
2013-05-18 16:31:00,87.2,68.0,29.72,South,176,12.0,16.0,53,0.00,,SKC,0.00,VWS V14.01,2013-05-18 21:31:00,
2013-05-18 16:36:00,87.1,66.8,29.73,SSW,202,17.0,19.0,51,0.00,,SKC,0.00,VWS V14.01,2013-05-18 21:36:00,
2013-05-18 16:41:00,86.9,67.2,29.73,SSE,156,14.0,14.0,52,0.00,,SKC,0.00,VWS V14.01,2013-05-18 21:41:00,
2013-05-18 16:46:00,86.8,67.1,29.73,South,187,11.0,16.0,52,0.00,,SKC,0.00,VWS V14.01,2013-05-18 21:46:00,
2013-05-18 16:52:00,86.8,67.1,29.73,SSE,155,10.0,11.0,52,0.00,,SKC,0.00,VWS V14.01,2013-05-18 21:52:00,
2013-05-18 16:57:00,86.7,67.0,29.73,South,190,17.0,17.0,52,0.00,,SKC,0.00,VWS V14.01,2013-05-18 21:57:00,
2013-05-18 17:02:00,86.5,67.3,29.73,South,188,16.0,16.0,53,0.00,,SKC,0.00,VWS V14.01,2013-05-18 22:02:00,
2013-05-18 17:07:00,86.5,66.8,29.73,SSW,207,12.0,13.0,52,0.00,,SKC,0.00,VWS V14.01,2013-05-18 22:07:00,
2013-05-18 17:12:00,86.4,67.3,29.73,South,185,11.0,16.0,53,0.00,,SKC,0.00,VWS V14.01,2013-05-18 22:12:00,
2013-05-18 17:17:00,86.3,67.2,29.73,SSW,208,13.0,16.0,53,0.00,,SKC,0.00,VWS V14.01,2013-05-18 22:17:00,
2013-05-18 17:22:00,86.2,67.6,29.72,South,188,10.0,12.0,54,0.00,,SKC,0.00,VWS V14.01,2013-05-18 22:22:00,
2013-05-18 17:27:00,86.1,67.5,29.72,SSE,167,10.0,14.0,54,0.00,,SKC,0.00,VWS V14.01,2013-05-18 22:27:00,
2013-05-18 17:32:00,86.1,67.5,29.72,SSW,192,9.0,14.0,54,0.00,,SKC,0.00,VWS V14.01,2013-05-18 22:32:00,
2013-05-18 17:37:00,86.0,66.9,29.72,SSE,153,6.0,15.0,53,0.00,,SKC,0.00,VWS V14.01,2013-05-18 22:37:00,
2013-05-18 17:42:00,85.9,67.3,29.72,SSE,154,12.0,12.0,54,0.00,,SKC,0.00,VWS V14.01,2013-05-18 22:42:00,
2013-05-18 17:47:00,85.8,67.2,29.72,South,179,10.0,11.0,54,0.00,,SKC,0.00,VWS V14.01,2013-05-18 22:47:00,
2013-05-18 17:52:00,85.7,67.2,29.72,South,173,7.0,10.0,54,0.00,,SKC,0.00,VWS V14.01,2013-05-18 22:52:00,
2013-05-18 17:57:00,85.4,66.9,29.72,SSE,151,12.0,14.0,54,0.00,,SKC,0.00,VWS V14.01,2013-05-18 22:57:00,
2013-05-18 18:02:00,85.2,66.7,29.72,SSE,167,14.0,14.0,54,0.00,,SKC,0.00,VWS V14.01,2013-05-18 23:02:00,
2013-05-18 18:07:00,85.0,66.5,29.71,South,171,12.0,14.0,54,0.00,,SKC,0.00,VWS V14.01,2013-05-18 23:07:00,
2013-05-18 18:12:00,85.0,66.5,29.71,South,182,11.0,11.0,54,0.00,,SKC,0.00,VWS V14.01,2013-05-18 23:12:00,
2013-05-18 18:17:00,85.0,66.5,29.71,South,190,15.0,19.0,54,0.00,,SKC,0.00,VWS V14.01,2013-05-18 23:17:00,
2013-05-18 18:22:00,85.0,67.0,29.71,South,181,6.0,7.0,55,0.00,,SKC,0.00,VWS V14.01,2013-05-18 23:22:00,
2013-05-18 18:27:00,84.9,67.5,29.70,SSE,168,14.0,14.0,56,0.00,,SKC,0.00,VWS V14.01,2013-05-18 23:27:00,
2013-05-18 18:32:00,84.8,67.4,29.70,SSE,168,13.0,15.0,56,0.00,,SKC,0.00,VWS V14.01,2013-05-18 23:32:00,
2013-05-18 18:37:00,84.8,67.4,29.71,SSW,208,10.0,10.0,56,0.00,,SKC,0.00,VWS V14.01,2013-05-18 23:37:00,
2013-05-18 18:42:00,84.7,67.8,29.70,SSE,161,6.0,12.0,57,0.00,,SKC,0.00,VWS V14.01,2013-05-18 23:42:00,
2013-05-18 18:46:00,84.7,67.8,29.69,ESE,107,9.0,11.0,57,0.00,,SKC,0.00,VWS V14.01,2013-05-18 23:46:00,
2013-05-18 18:51:00,84.8,67.9,29.69,SSE,159,6.0,9.0,57,0.00,,SKC,0.00,VWS V14.01,2013-05-18 23:51:00,
2013-05-18 18:56:00,85.1,68.2,29.70,South,189,10.0,11.0,57,0.00,,SKC,0.00,VWS V14.01,2013-05-18 23:56:00,
2013-05-18 19:01:00,85.0,68.1,29.70,SSE,159,7.0,8.0,57,0.00,,SKC,0.00,VWS V14.01,2013-05-19 00:01:00,
2013-05-18 19:07:00,84.8,67.9,29.70,SSE,168,19.0,20.0,57,0.00,,SKC,0.00,VWS V14.01,2013-05-19 00:07:00,
2013-05-18 19:11:00,84.6,67.7,29.70,South,181,13.0,13.0,57,0.00,,SKC,0.00,VWS V14.01,2013-05-19 00:11:00,
2013-05-18 19:16:00,84.3,67.4,29.70,SE,125,9.0,12.0,57,0.00,,SKC,0.00,VWS V14.01,2013-05-19 00:16:00,
2013-05-18 19:21:00,84.0,67.1,29.71,SSE,165,7.0,10.0,57,0.00,,SKC,0.00,VWS V14.01,2013-05-19 00:21:00,
2013-05-18 19:26:00,83.9,67.6,29.70,SE,132,8.0,11.0,58,0.00,,SKC,0.00,VWS V14.01,2013-05-19 00:26:00,
2013-05-18 19:31:00,83.8,67.5,29.70,South,190,10.0,11.0,58,0.00,,SKC,0.00,VWS V14.01,2013-05-19 00:31:00,
2013-05-18 19:36:00,83.7,67.4,29.70,SSE,165,13.0,13.0,58,0.00,,SKC,0.00,VWS V14.01,2013-05-19 00:36:00,
2013-05-18 19:41:00,83.4,67.1,29.70,South,182,7.0,7.0,58,0.00,,SKC,0.00,VWS V14.01,2013-05-19 00:41:00,
2013-05-18 19:47:00,83.0,67.2,29.70,SSE,153,10.0,12.0,59,0.00,,SKC,0.00,VWS V14.01,2013-05-19 00:47:00,
2013-05-18 19:52:00,82.6,67.3,29.71,SSE,156,9.0,12.0,60,0.00,,SKC,0.00,VWS V14.01,2013-05-19 00:52:00,
2013-05-18 19:56:00,82.3,67.5,29.70,SSE,151,14.0,20.0,61,0.00,,SKC,0.00,VWS V14.01,2013-05-19 00:56:00,
2013-05-18 20:02:00,82.1,66.8,29.70,South,171,15.0,19.0,60,0.00,,SKC,0.00,VWS V14.01,2013-05-19 01:02:00,
2013-05-18 20:06:00,81.9,67.1,29.70,SSE,152,9.0,11.0,61,0.00,,SKC,0.00,VWS V14.01,2013-05-19 01:06:00,
2013-05-18 20:11:00,81.7,66.9,29.70,South,176,9.0,11.0,61,0.00,,SKC,0.00,VWS V14.01,2013-05-19 01:11:00,
2013-05-18 20:17:00,81.4,66.7,29.71,SE,140,6.0,9.0,61,0.00,,SKC,0.00,VWS V14.01,2013-05-19 01:17:00,
2013-05-18 20:22:00,81.1,65.9,29.71,South,169,9.0,11.0,60,0.00,,SKC,0.00,VWS V14.01,2013-05-19 01:22:00,
2013-05-18 20:27:00,80.7,65.5,29.71,SSE,157,10.0,12.0,60,0.00,,SKC,0.00,VWS V14.01,2013-05-19 01:27:00,
2013-05-18 20:32:00,80.4,65.3,29.71,SSE,148,11.0,16.0,60,0.00,,SKC,0.00,VWS V14.01,2013-05-19 01:32:00,
2013-05-18 20:37:00,80.2,65.1,29.71,SE,142,11.0,18.0,60,0.00,,SKC,0.00,VWS V14.01,2013-05-19 01:37:00,
2013-05-18 20:42:00,79.9,65.3,29.71,South,171,6.0,16.0,61,0.00,,SKC,0.00,VWS V14.01,2013-05-19 01:42:00,
2013-05-18 20:47:00,79.6,65.0,29.71,SSE,168,12.0,12.0,61,0.00,,SKC,0.00,VWS V14.01,2013-05-19 01:47:00,
2013-05-18 20:52:00,79.3,65.2,29.71,SSE,155,18.0,18.0,62,0.00,,SKC,0.00,VWS V14.01,2013-05-19 01:52:00,
2013-05-18 20:57:00,79.2,65.1,29.72,SSE,160,6.0,10.0,62,0.00,,SKC,0.00,VWS V14.01,2013-05-19 01:57:00,
2013-05-18 21:02:00,78.9,65.2,29.72,South,175,10.0,14.0,63,0.00,,SKC,0.00,VWS V14.01,2013-05-19 02:02:00,
2013-05-18 21:07:00,78.7,65.1,29.72,SSE,168,12.0,13.0,63,0.00,,SKC,0.00,VWS V14.01,2013-05-19 02:07:00,
2013-05-18 21:12:00,78.5,64.9,29.72,South,173,10.0,11.0,63,0.00,,SKC,0.00,VWS V14.01,2013-05-19 02:12:00,
2013-05-18 21:17:00,78.2,65.0,29.72,SE,140,4.0,10.0,64,0.00,,SKC,0.00,VWS V14.01,2013-05-19 02:17:00,
2013-05-18 21:22:00,78.0,64.8,29.72,SSE,148,13.0,18.0,64,0.00,,SKC,0.00,VWS V14.01,2013-05-19 02:22:00,
2013-05-18 21:27:00,78.0,65.3,29.72,SSE,166,15.0,15.0,65,0.00,,SKC,0.00,VWS V14.01,2013-05-19 02:27:00,
2013-05-18 21:32:00,77.8,65.1,29.72,SSW,194,11.0,16.0,65,0.00,,SKC,0.00,VWS V14.01,2013-05-19 02:32:00,
2013-05-18 21:37:00,77.7,65.4,29.72,South,175,9.0,13.0,66,0.00,,SKC,0.00,VWS V14.01,2013-05-19 02:37:00,
2013-05-18 21:42:00,77.5,65.7,29.72,SSE,159,15.0,18.0,67,0.00,,SKC,0.00,VWS V14.01,2013-05-19 02:42:00,
2013-05-18 21:47:00,77.4,65.6,29.72,SSE,163,11.0,17.0,67,0.00,,SKC,0.00,VWS V14.01,2013-05-19 02:47:00,
2013-05-18 21:52:00,77.1,65.7,29.73,SSE,167,5.0,9.0,68,0.00,,SKC,0.00,VWS V14.01,2013-05-19 02:52:00,
2013-05-18 21:57:00,76.9,66.0,29.73,SSE,156,5.0,10.0,69,0.00,,SKC,0.00,VWS V14.01,2013-05-19 02:57:00,
2013-05-18 22:02:00,76.7,66.2,29.73,SSE,166,9.0,13.0,70,0.00,,SKC,0.00,VWS V14.01,2013-05-19 03:02:00,
2013-05-18 22:07:00,76.6,66.1,29.73,South,176,7.0,10.0,70,0.00,,SKC,0.00,VWS V14.01,2013-05-19 03:07:00,
2013-05-18 22:12:00,76.6,66.5,29.73,SE,144,7.0,12.0,71,0.00,,SKC,0.00,VWS V14.01,2013-05-19 03:12:00,
2013-05-18 22:17:00,76.4,66.3,29.73,SSE,160,6.0,10.0,71,0.00,,SKC,0.00,VWS V14.01,2013-05-19 03:17:00,
2013-05-18 22:22:00,76.3,66.2,29.73,SSE,152,7.0,11.0,71,0.00,,SKC,0.00,VWS V14.01,2013-05-19 03:22:00,
2013-05-18 22:27:00,76.2,66.5,29.73,SSE,159,7.0,14.0,72,0.00,,SKC,0.00,VWS V14.01,2013-05-19 03:27:00,
2013-05-18 22:32:00,76.0,66.3,29.74,SSE,149,13.0,13.0,72,0.00,,SKC,0.00,VWS V14.01,2013-05-19 03:32:00,
2013-05-18 22:37:00,76.1,66.0,29.74,SSE,147,9.0,11.0,71,0.00,,SKC,0.00,VWS V14.01,2013-05-19 03:37:00,
2013-05-18 22:42:00,76.2,66.1,29.73,SE,140,19.0,23.0,71,0.00,,SKC,0.00,VWS V14.01,2013-05-19 03:42:00,
2013-05-18 22:47:00,76.2,66.1,29.74,SSE,149,6.0,14.0,71,0.00,,SKC,0.00,VWS V14.01,2013-05-19 03:47:00,
2013-05-18 22:52:00,76.1,65.6,29.74,South,178,10.0,13.0,70,0.00,,SKC,0.00,VWS V14.01,2013-05-19 03:52:00,
2013-05-18 22:57:00,76.0,65.5,29.75,SSW,197,12.0,15.0,70,0.00,,SKC,0.00,VWS V14.01,2013-05-19 03:57:00,
2013-05-18 23:01:00,76.0,65.5,29.75,South,176,11.0,11.0,70,0.00,,SKC,0.00,VWS V14.01,2013-05-19 04:01:00,
2013-05-18 23:06:00,75.8,65.3,29.75,SSW,194,12.0,15.0,70,0.00,,SKC,0.00,VWS V14.01,2013-05-19 04:06:00,
2013-05-18 23:11:00,75.7,65.2,29.75,South,186,6.0,11.0,70,0.00,,SKC,0.00,VWS V14.01,2013-05-19 04:11:00,
2013-05-18 23:16:00,75.5,65.0,29.75,SSE,157,13.0,13.0,70,0.00,,SKC,0.00,VWS V14.01,2013-05-19 04:16:00,
2013-05-18 23:21:00,75.5,65.0,29.75,SSE,155,12.0,13.0,70,0.00,,SKC,0.00,VWS V14.01,2013-05-19 04:21:00,
2013-05-18 23:26:00,75.4,64.9,29.75,South,190,11.0,13.0,70,0.00,,SKC,0.00,VWS V14.01,2013-05-19 04:26:00,
2013-05-18 23:31:00,75.2,64.8,29.75,SSE,167,6.0,11.0,70,0.00,,SKC,0.00,VWS V14.01,2013-05-19 04:31:00,
2013-05-18 23:36:00,75.2,64.8,29.75,SSE,167,7.0,13.0,70,0.00,,SKC,0.00,VWS V14.01,2013-05-19 04:36:00,
2013-05-18 23:41:00,75.1,64.7,29.75,SSE,152,3.0,10.0,70,0.00,,SKC,0.00,VWS V14.01,2013-05-19 04:41:00,
2013-05-18 23:46:00,75.1,64.7,29.75,SSE,160,6.0,14.0,70,0.00,,SKC,0.00,VWS V14.01,2013-05-19 04:46:00,
2013-05-18 23:51:00,75.0,64.6,29.75,SE,144,5.0,10.0,70,0.00,,SKC,0.00,VWS V14.01,2013-05-19 04:51:00,
2013-05-18 23:56:00,74.8,64.4,29.75,South,184,10.0,16.0,70,0.00,,SKC,0.00,VWS V14.01,2013-05-19 04:56:00,